TimeCST,TemperatureF,Dew PointF,Humidity,Sea Level PressureIn,VisibilityMPH,Wind Direction,Wind SpeedMPH,Gust SpeedMPH,PrecipitationIn,Events,Conditions,WindDirDegrees,DateUTC
6:00 AM,72,70,93,29.90,12,Calm,Calm,,,,Overcast,,2012-10-02 12:00:00
6:00 AM,73.4,69.8,88,29.88,-9999.0,Calm,Calm,-,N/A,,Clear,0,2012-10-02 12:00:00
7:00 AM,77.0,71.6,83,29.90,-9999.0,ENE,2.3,-,N/A,,Clear,60,2012-10-02 13:00:00
8:00 AM,80.6,73.4,79,29.92,-9999.0,Calm,Calm,-,N/A,,Clear,0,2012-10-02 14:00:00
9:00 AM,82,,,,12,WSW,2.3,,,,Overcast,250,2012-10-02 15:00:00
9:00 AM,82.4,73.4,74,29.93,6.2,WSW,2.3,-,N/A,,Overcast,250,2012-10-02 15:00:00
10:00 AM,86.0,75.2,70,29.92,6.2,West,5.8,-,N/A,,Overcast,270,2012-10-02 16:00:00
11:00 AM,86.0,75.2,70,29.89,6.2,SW,5.8,-,N/A,,Overcast,230,2012-10-02 17:00:00
12:00 PM,86,75,63,29.88,12,West,6.9,,,,Overcast,280,2012-10-02 18:00:00
12:00 PM,86.0,75.2,70,29.87,6.2,West,6.9,-,N/A,,Mostly Cloudy,280,2012-10-02 18:00:00
1:00 PM,87.8,75.2,66,29.84,6.2,West,8.1,-,N/A,,Mostly Cloudy,260,2012-10-02 19:00:00
2:00 PM,87.8,75.2,66,29.81,6.2,West,10.4,-,N/A,,Mostly Cloudy,270,2012-10-02 20:00:00
3:00 PM,87,76,63,29.82,12,West,11.5,,,,Partly Cloudy,260,2012-10-02 21:00:00
3:00 PM,87.8,75.2,66,29.80,6.2,West,11.5,-,N/A,,Mostly Cloudy,260,2012-10-02 21:00:00
3:46 PM,82.4,71.6,70,29.81,6.2,NNW,9.2,-,N/A,Rain-Thunderstorm,Light Thunderstorms and Rain,340,2012-10-02 21:46:00
4:00 PM,78.8,71.6,78,29.81,6.2,NW,9.2,-,N/A,,Drizzle,320,2012-10-02 22:00:00
5:00 PM,78.8,75.2,89,29.84,6.2,East,3.5,-,N/A,,Scattered Clouds,90,2012-10-02 23:00:00
6:00 PM,76,72,83,29.86,12,Calm,Calm,,,,Scattered Clouds,,2012-10-03 00:00:00
6:00 PM,75.2,71.6,89,29.85,6.2,Calm,Calm,-,N/A,,Scattered Clouds,0,2012-10-03 00:00:00
7:00 PM,73.4,71.6,94,29.86,6.2,East,4.6,-,N/A,,Partly Cloudy,100,2012-10-03 01:00:00
8:00 PM,73.4,71.6,94,29.90,6.2,Calm,Calm,-,N/A,,Scattered Clouds,0,2012-10-03 02:00:00